createdAt,value
2018-10-04T00:01:35.264Z,7.60
2018-10-04T00:04:02.539Z,7.50
2018-10-04T00:06:29.841Z,7.60
2018-10-04T00:08:57.153Z,7.60
2018-10-04T00:11:24.459Z,7.60
2018-10-04T00:13:51.757Z,7.60
2018-10-04T00:16:19.042Z,7.60
2018-10-04T00:18:46.342Z,7.50
2018-10-04T00:21:13.717Z,7.40
2018-10-04T00:23:41.020Z,7.40
2018-10-04T00:26:08.466Z,7.40
2018-10-04T00:28:35.749Z,7.40
2018-10-04T00:31:03.056Z,7.40
2018-10-04T00:33:30.370Z,7.30
2018-10-04T00:35:57.672Z,7.30
2018-10-04T00:38:24.992Z,7.20
2018-10-04T00:40:52.298Z,7.20
2018-10-04T00:43:19.590Z,7.10
2018-10-04T00:45:46.948Z,7.00
2018-10-04T00:48:14.214Z,6.90
2018-10-04T00:50:41.535Z,6.80
2018-10-04T00:53:08.813Z,6.70
2018-10-04T00:55:36.189Z,6.60
2018-10-04T00:58:03.469Z,6.50
2018-10-04T01:00:30.783Z,6.50
2018-10-04T01:02:58.142Z,6.50
2018-10-04T01:05:25.422Z,6.50
2018-10-04T01:07:52.719Z,6.40
2018-10-04T01:10:20.012Z,6.20
2018-10-04T01:12:47.305Z,6.10
2018-10-04T01:15:14.684Z,6.20
2018-10-04T01:17:42.014Z,6.20
2018-10-04T01:20:09.301Z,6.20
2018-10-04T01:22:36.588Z,6.30
2018-10-04T01:25:03.896Z,6.40
2018-10-04T01:27:31.153Z,6.30
2018-10-04T01:29:58.485Z,6.40
2018-10-04T01:32:25.907Z,6.50
2018-10-04T01:34:53.178Z,6.60
2018-10-04T01:37:20.462Z,6.70
2018-10-04T01:39:47.742Z,6.70
2018-10-04T01:42:15.044Z,6.50
2018-10-04T01:44:42.298Z,6.40
2018-10-04T01:47:09.914Z,6.50
2018-10-04T01:49:37.210Z,6.60
2018-10-04T01:52:04.484Z,6.60
2018-10-04T01:54:31.742Z,6.60
2018-10-04T01:56:59.013Z,6.60
2018-10-04T01:59:26.261Z,6.60
2018-10-04T02:01:53.522Z,6.60
2018-10-04T02:04:20.784Z,6.60
2018-10-04T02:06:48.076Z,6.60
2018-10-04T02:09:15.648Z,6.40
2018-10-04T02:11:43.055Z,6.20
2018-10-04T02:14:10.353Z,6.10
2018-10-04T02:16:37.634Z,6.20
2018-10-04T02:19:04.948Z,6.20
2018-10-04T02:21:32.285Z,6.10
2018-10-04T02:23:59.610Z,6.10
2018-10-04T02:26:26.886Z,6.10
2018-10-04T02:28:54.180Z,6.20
2018-10-04T02:31:21.461Z,6.30
2018-10-04T02:33:48.790Z,6.30
2018-10-04T02:36:16.136Z,6.30
2018-10-04T02:38:43.429Z,6.30
2018-10-04T02:41:10.726Z,6.10
2018-10-04T02:43:38.018Z,5.90
2018-10-04T02:46:05.318Z,5.90
2018-10-04T02:48:32.617Z,5.90
2018-10-04T02:50:59.900Z,5.80
2018-10-04T02:53:27.197Z,5.70
2018-10-04T02:56:00.182Z,5.60
2018-10-04T02:58:27.590Z,5.60
2018-10-04T03:00:54.900Z,5.60
2018-10-04T03:03:22.202Z,5.60
2018-10-04T03:05:49.504Z,5.70
2018-10-04T03:08:16.776Z,5.80
2018-10-04T03:10:44.058Z,5.90
2018-10-04T03:13:11.377Z,6.00
2018-10-04T03:15:38.666Z,6.00
2018-10-04T03:18:05.977Z,5.90
2018-10-04T03:20:33.281Z,6.00
2018-10-04T03:23:00.569Z,6.00
2018-10-04T03:25:27.898Z,6.00
2018-10-04T03:27:55.184Z,6.10
2018-10-04T03:30:22.700Z,6.10
2018-10-04T03:32:49.855Z,6.00
2018-10-04T03:35:17.153Z,6.00
2018-10-04T03:37:44.441Z,6.00
2018-10-04T03:40:11.734Z,6.00
2018-10-04T03:42:39.030Z,6.00
2018-10-04T03:45:06.345Z,6.00
2018-10-04T03:47:33.617Z,5.90
2018-10-04T03:50:00.933Z,5.90
2018-10-04T03:52:28.226Z,5.90
2018-10-04T03:54:55.534Z,5.90
2018-10-04T03:57:22.909Z,5.90
2018-10-04T03:59:50.184Z,5.90
2018-10-04T04:02:17.500Z,5.90
2018-10-04T04:04:44.983Z,5.90
2018-10-04T04:07:12.245Z,5.80
2018-10-04T04:09:39.517Z,5.80
2018-10-04T04:12:06.813Z,5.80
2018-10-04T04:14:34.049Z,5.80
2018-10-04T04:17:01.310Z,5.80
2018-10-04T04:19:28.573Z,5.90
2018-10-04T04:21:55.826Z,5.90
2018-10-04T04:24:23.056Z,5.90
2018-10-04T04:26:50.290Z,5.80
2018-10-04T04:29:17.543Z,5.80
2018-10-04T04:31:44.838Z,5.90
2018-10-04T04:34:12.081Z,5.90
2018-10-04T04:36:39.369Z,5.80
2018-10-04T04:39:07.029Z,5.70
2018-10-04T04:41:34.317Z,5.60
2018-10-04T04:44:01.587Z,5.50
2018-10-04T04:46:28.906Z,5.50
2018-10-04T04:48:56.131Z,5.40
2018-10-04T04:51:23.378Z,5.40
2018-10-04T04:53:50.642Z,5.30
2018-10-04T04:56:17.885Z,5.40
2018-10-04T04:58:45.153Z,5.40
2018-10-04T05:01:12.418Z,5.40
2018-10-04T05:03:39.668Z,5.40
2018-10-04T05:06:07.029Z,5.40
2018-10-04T05:08:34.405Z,5.40
2018-10-04T05:11:01.783Z,5.40
2018-10-04T05:13:29.038Z,5.30
2018-10-04T05:15:56.308Z,5.30
2018-10-04T05:18:23.561Z,5.20
2018-10-04T05:20:50.878Z,5.10
2018-10-04T05:23:18.162Z,5.10
2018-10-04T05:25:45.446Z,5.10
2018-10-04T05:28:12.826Z,5.10
2018-10-04T05:30:40.116Z,5.10
2018-10-04T05:33:07.438Z,5.20
2018-10-04T05:35:34.693Z,5.30
2018-10-04T05:38:02.021Z,5.30
2018-10-04T05:40:29.322Z,5.20
2018-10-04T05:42:56.592Z,5.30
2018-10-04T05:45:23.940Z,5.30
2018-10-04T05:47:51.148Z,5.40
2018-10-04T05:50:18.428Z,5.20
2018-10-04T05:52:45.714Z,5.40
2018-10-04T05:55:12.985Z,5.40
2018-10-04T05:57:40.413Z,5.50
2018-10-04T06:00:19.197Z,5.50
2018-10-04T06:02:46.457Z,5.40
2018-10-04T06:05:13.775Z,5.30
2018-10-04T06:07:41.005Z,5.10
2018-10-04T06:10:08.304Z,5.10
2018-10-04T06:12:36.126Z,5.20
2018-10-04T06:15:03.491Z,5.30
2018-10-04T06:17:30.719Z,5.40
2018-10-04T06:19:58.026Z,5.30
2018-10-04T06:22:25.267Z,5.40
2018-10-04T06:24:52.522Z,5.50
2018-10-04T06:27:19.797Z,5.60
2018-10-04T06:29:47.056Z,5.60
2018-10-04T06:32:14.383Z,5.80
2018-10-04T06:34:41.633Z,5.80
2018-10-04T06:37:08.916Z,5.80
2018-10-04T06:39:36.160Z,5.90
2018-10-04T06:42:03.434Z,5.90
2018-10-04T06:44:30.689Z,6.00
2018-10-04T06:46:57.957Z,6.00
2018-10-04T06:49:25.209Z,6.00
2018-10-04T06:51:52.481Z,6.10
2018-10-04T06:54:19.734Z,6.20
2018-10-04T06:56:47.288Z,6.20
2018-10-04T06:59:14.549Z,6.30
2018-10-04T07:01:41.834Z,6.40
2018-10-04T07:04:09.090Z,6.50
2018-10-04T07:06:36.386Z,6.60
2018-10-04T07:09:05.887Z,6.60
2018-10-04T07:11:33.162Z,6.70
2018-10-04T07:14:00.449Z,6.80
2018-10-04T07:16:27.741Z,6.80
2018-10-04T07:18:55.018Z,6.90
2018-10-04T07:21:22.292Z,7.00
2018-10-04T07:23:49.585Z,7.10
2018-10-04T07:26:16.888Z,7.20
2018-10-04T07:28:44.988Z,7.30
2018-10-04T07:31:12.265Z,7.40
2018-10-04T07:33:39.553Z,7.50
2018-10-04T07:36:06.850Z,7.50
2018-10-04T07:38:34.174Z,7.60
2018-10-04T07:41:01.460Z,7.70
2018-10-04T07:43:28.804Z,7.80
2018-10-04T07:45:56.078Z,7.90
2018-10-04T07:48:23.377Z,8.00
2018-10-04T07:50:50.689Z,8.00
2018-10-04T07:53:17.973Z,8.10
2018-10-04T07:55:45.268Z,8.20
2018-10-04T07:58:12.597Z,8.30
2018-10-04T08:00:39.881Z,8.30
2018-10-04T08:03:07.185Z,8.40
2018-10-04T08:05:34.521Z,8.40
2018-10-04T08:08:01.800Z,8.50
2018-10-04T08:10:29.106Z,8.60
2018-10-04T08:12:56.393Z,8.70
2018-10-04T08:15:23.708Z,8.70
2018-10-04T08:17:51.037Z,8.80
2018-10-04T08:20:18.333Z,8.90
2018-10-04T08:22:45.810Z,8.90
2018-10-04T08:25:13.161Z,9.00
2018-10-04T08:27:40.478Z,9.10
2018-10-04T08:30:08.985Z,9.20
2018-10-04T08:32:36.370Z,9.20
2018-10-04T08:35:03.782Z,9.40
2018-10-04T08:37:31.077Z,9.50
2018-10-04T08:39:58.503Z,9.50
2018-10-04T08:42:25.823Z,9.60
2018-10-04T08:44:53.076Z,9.70
2018-10-04T08:47:20.409Z,9.80
2018-10-04T08:49:47.721Z,9.80
2018-10-04T08:52:20.568Z,9.90
2018-10-04T08:54:47.852Z,10.00
2018-10-04T08:57:15.153Z,10.00
2018-10-04T08:59:42.515Z,10.10
2018-10-04T09:02:09.775Z,10.20
2018-10-04T09:04:37.069Z,10.30
2018-10-04T09:07:04.412Z,10.40
2018-10-04T09:09:31.688Z,10.50
2018-10-04T09:11:58.978Z,10.60
2018-10-04T09:14:26.245Z,10.70
2018-10-04T09:16:53.565Z,10.70
2018-10-04T09:19:20.861Z,10.80
2018-10-04T09:21:48.177Z,10.90
2018-10-04T09:24:15.462Z,11.00
2018-10-04T09:26:42.757Z,11.00
2018-10-04T09:29:10.799Z,11.10
2018-10-04T09:31:39.472Z,11.20
2018-10-04T09:34:07.511Z,11.30
2018-10-04T09:36:34.836Z,11.30
2018-10-04T09:39:02.286Z,11.40
2018-10-04T09:41:29.579Z,11.50
2018-10-04T09:43:56.888Z,11.50
2018-10-04T09:46:24.216Z,11.50
2018-10-04T09:48:51.501Z,11.60
2018-10-04T09:51:24.373Z,11.70
2018-10-04T09:53:52.772Z,11.70
2018-10-04T09:56:26.353Z,11.80
2018-10-04T09:58:55.952Z,11.90
2018-10-04T10:01:28.909Z,12.00
2018-10-04T10:03:56.184Z,12.00
2018-10-04T10:06:24.221Z,12.10
2018-10-04T10:08:51.512Z,12.10
2018-10-04T10:11:18.809Z,12.20
2018-10-04T10:13:46.090Z,12.20
2018-10-04T10:16:13.505Z,12.20
2018-10-04T10:18:40.785Z,12.30
2018-10-04T10:21:08.672Z,12.30
2018-10-04T10:23:35.951Z,12.40
2018-10-04T10:26:03.282Z,12.40
2018-10-04T10:28:31.053Z,12.40
2018-10-04T10:30:58.332Z,12.50
2018-10-04T10:33:25.609Z,12.60
2018-10-04T10:35:52.876Z,12.60
2018-10-04T10:38:20.151Z,12.70
2018-10-04T10:40:47.551Z,12.80
2018-10-04T10:43:14.854Z,12.80
2018-10-04T10:45:42.151Z,12.80
2018-10-04T10:48:09.410Z,12.90
2018-10-04T10:50:36.689Z,12.90
2018-10-04T10:53:04.013Z,13.00
2018-10-04T10:55:31.285Z,13.00
2018-10-04T10:57:58.546Z,13.10
2018-10-04T11:00:25.854Z,13.20
2018-10-04T11:02:53.210Z,13.20
2018-10-04T11:05:20.487Z,13.30
2018-10-04T11:07:47.745Z,13.30
2018-10-04T11:10:15.069Z,13.40
2018-10-04T11:12:42.316Z,13.40
2018-10-04T11:15:09.568Z,13.50
2018-10-04T11:17:36.829Z,13.50
2018-10-04T11:20:04.135Z,13.50
2018-10-04T11:22:31.385Z,13.50
2018-10-04T11:24:58.689Z,13.50
2018-10-04T11:27:25.974Z,13.60
2018-10-04T11:29:53.221Z,13.60
2018-10-04T11:32:20.506Z,13.70
2018-10-04T11:34:47.801Z,13.70
2018-10-04T11:37:15.145Z,13.70
2018-10-04T11:39:42.408Z,13.70
2018-10-04T11:42:09.721Z,13.80
2018-10-04T11:44:42.497Z,13.80
2018-10-04T11:47:15.033Z,14.00
2018-10-04T11:49:42.304Z,14.00
2018-10-04T11:52:09.602Z,14.00
2018-10-04T11:54:36.978Z,14.10
2018-10-04T11:57:04.229Z,14.20
2018-10-04T11:59:31.521Z,14.20
2018-10-04T12:01:58.841Z,14.20
2018-10-04T12:04:26.080Z,14.20
2018-10-04T12:06:53.563Z,14.30
2018-10-04T12:09:20.932Z,14.30
2018-10-04T12:11:48.249Z,14.40
2018-10-04T12:14:15.636Z,14.40
2018-10-04T12:16:42.909Z,14.40
2018-10-04T12:19:10.216Z,14.40
2018-10-04T12:21:37.502Z,14.40
2018-10-04T12:24:04.826Z,14.50
2018-10-04T12:26:32.117Z,14.50
2018-10-04T12:28:59.423Z,14.60
2018-10-04T12:31:26.844Z,14.60
2018-10-04T12:33:54.025Z,14.70
2018-10-04T12:36:21.397Z,14.70
2018-10-04T12:38:48.700Z,14.80
2018-10-04T12:41:16.034Z,14.80
2018-10-04T12:43:43.336Z,14.90
2018-10-04T12:46:10.625Z,15.00
2018-10-04T12:48:37.909Z,15.00
2018-10-04T12:51:05.213Z,15.00
2018-10-04T12:53:32.565Z,15.00
2018-10-04T12:55:59.913Z,15.00
2018-10-04T12:58:27.210Z,15.00
2018-10-04T13:00:54.539Z,15.10
2018-10-04T13:03:21.776Z,15.00
2018-10-04T13:05:49.292Z,15.10
2018-10-04T13:08:16.755Z,15.10
2018-10-04T13:10:44.041Z,15.00
2018-10-04T13:13:11.316Z,15.10
2018-10-04T13:15:38.600Z,15.10
2018-10-04T13:18:05.913Z,15.20
2018-10-04T13:20:33.287Z,15.20
2018-10-04T13:23:00.608Z,15.30
2018-10-04T13:25:27.931Z,15.30
2018-10-04T13:27:55.279Z,15.40
2018-10-04T13:30:22.758Z,15.40
2018-10-04T13:32:50.053Z,15.40
2018-10-04T13:35:17.370Z,15.40
2018-10-04T13:37:44.723Z,15.40
2018-10-04T13:40:12.013Z,15.40
2018-10-04T13:42:39.321Z,15.50
2018-10-04T13:45:06.746Z,15.50
2018-10-04T13:47:34.037Z,15.60
2018-10-04T13:50:01.301Z,15.60
2018-10-04T13:52:28.580Z,15.70
2018-10-04T13:54:55.856Z,15.80
2018-10-04T13:57:23.137Z,15.70
2018-10-04T13:59:50.442Z,15.70
2018-10-04T14:02:17.725Z,15.80
2018-10-04T14:04:45.025Z,15.70
2018-10-04T14:07:12.373Z,15.70
2018-10-04T14:09:39.645Z,15.70
2018-10-04T14:12:06.913Z,15.70
2018-10-04T14:14:34.181Z,15.80
2018-10-04T14:17:01.489Z,15.90
2018-10-04T14:19:28.803Z,15.90
2018-10-04T14:21:56.058Z,15.80
2018-10-04T14:24:23.337Z,15.70
2018-10-04T14:26:50.645Z,15.80
2018-10-04T14:29:17.990Z,15.80
2018-10-04T14:31:45.289Z,15.90
2018-10-04T14:34:12.593Z,15.90
2018-10-04T14:36:39.878Z,15.90
2018-10-04T14:39:07.281Z,15.90
2018-10-04T14:41:34.509Z,15.90
2018-10-04T14:44:01.824Z,15.90
2018-10-04T14:46:29.098Z,15.80
2018-10-04T14:48:56.409Z,15.80
2018-10-04T14:51:23.801Z,15.90
2018-10-04T14:53:50.996Z,15.90
2018-10-04T14:56:18.279Z,15.90
2018-10-04T14:58:45.561Z,16.00
2018-10-04T15:01:12.906Z,15.90
2018-10-04T15:03:40.201Z,15.90
2018-10-04T15:06:07.518Z,15.90
2018-10-04T15:08:34.801Z,15.90
2018-10-04T15:11:02.069Z,15.90
2018-10-04T15:13:29.356Z,15.90
2018-10-04T15:15:56.625Z,15.90
2018-10-04T15:18:23.917Z,15.90
2018-10-04T15:20:51.184Z,15.80
2018-10-04T15:23:18.495Z,15.80
2018-10-04T15:25:45.765Z,15.80
2018-10-04T15:28:13.041Z,15.80
2018-10-04T15:30:40.310Z,15.80
2018-10-04T15:33:07.597Z,15.80
2018-10-04T15:35:34.868Z,15.80
2018-10-04T15:38:02.141Z,15.80
2018-10-04T15:40:29.420Z,15.80
2018-10-04T15:42:56.746Z,15.80
2018-10-04T15:45:23.988Z,15.80
2018-10-04T15:47:51.293Z,15.70
2018-10-04T15:50:18.704Z,15.60
2018-10-04T15:52:46.000Z,15.60
2018-10-04T15:55:13.265Z,15.60
2018-10-04T15:57:40.605Z,15.60
2018-10-04T16:00:07.924Z,15.70
2018-10-04T16:02:35.264Z,15.70
2018-10-04T16:05:02.586Z,15.70
2018-10-04T16:07:29.881Z,15.80
2018-10-04T16:09:57.184Z,15.70
2018-10-04T16:12:24.458Z,15.80
2018-10-04T16:14:51.847Z,15.70
2018-10-04T16:17:19.133Z,15.70
2018-10-04T16:19:46.425Z,15.70
2018-10-04T16:22:13.722Z,15.60
2018-10-04T16:24:41.016Z,15.60
2018-10-04T16:27:14.024Z,15.60
2018-10-04T16:29:41.324Z,15.50
2018-10-04T16:32:08.709Z,15.50
2018-10-04T16:34:36.066Z,15.40
2018-10-04T16:37:03.383Z,15.40
2018-10-04T16:39:30.650Z,15.40
2018-10-04T16:41:58.051Z,15.30
2018-10-04T16:44:25.358Z,15.20
2018-10-04T16:46:52.681Z,15.10
2018-10-04T16:49:19.961Z,15.10
2018-10-04T16:51:47.269Z,14.80
2018-10-04T16:54:14.546Z,14.70
2018-10-04T16:56:41.927Z,14.60
2018-10-04T16:59:09.221Z,14.20
2018-10-04T17:01:36.532Z,13.90
2018-10-04T17:04:03.834Z,13.80
2018-10-04T17:06:31.113Z,13.80
2018-10-04T17:08:58.374Z,13.80
2018-10-04T17:11:25.646Z,13.70
2018-10-04T17:13:52.899Z,13.90
2018-10-04T17:16:20.173Z,13.90
2018-10-04T17:18:47.428Z,14.00
2018-10-04T17:21:14.767Z,14.00
2018-10-04T17:23:42.078Z,13.80
2018-10-04T17:26:09.445Z,13.70
2018-10-04T17:28:36.721Z,13.70
2018-10-04T17:31:03.974Z,13.70
2018-10-04T17:33:31.252Z,13.60
2018-10-04T17:35:58.498Z,13.60
2018-10-04T17:38:25.769Z,13.50
2018-10-04T17:40:53.028Z,13.40
2018-10-04T17:43:20.356Z,13.30
2018-10-04T17:45:47.597Z,13.20
2018-10-04T17:48:14.877Z,12.90
2018-10-04T17:50:42.176Z,12.60
2018-10-04T17:53:09.444Z,12.70
2018-10-04T17:55:36.688Z,12.70
2018-10-04T17:58:03.967Z,12.80
2018-10-04T18:00:31.260Z,12.80
2018-10-04T18:02:58.673Z,12.80
2018-10-04T18:05:25.969Z,12.70
2018-10-04T18:07:53.245Z,12.70
2018-10-04T18:10:20.518Z,12.60
2018-10-04T18:12:47.901Z,12.50
2018-10-04T18:15:15.167Z,12.50
2018-10-04T18:17:42.465Z,12.60
2018-10-04T18:20:09.768Z,12.50
2018-10-04T18:22:37.062Z,12.30
2018-10-04T18:25:04.661Z,12.00
2018-10-04T18:27:31.934Z,12.10
2018-10-04T18:29:59.244Z,12.10
2018-10-04T18:32:26.525Z,12.00
2018-10-04T18:34:53.798Z,12.10
2018-10-04T18:37:21.074Z,12.20
2018-10-04T18:39:48.320Z,12.10
2018-10-04T18:42:15.608Z,12.00
2018-10-04T18:44:42.887Z,11.90
2018-10-04T18:47:10.156Z,11.80
2018-10-04T18:49:38.174Z,11.80
2018-10-04T18:52:05.642Z,11.70
2018-10-04T18:54:32.919Z,11.90
2018-10-04T18:57:00.218Z,11.80
2018-10-04T18:59:27.486Z,11.70
2018-10-04T19:01:54.757Z,11.60
2018-10-04T19:04:22.002Z,11.70
2018-10-04T19:06:49.345Z,11.60
2018-10-04T19:09:16.646Z,11.70
2018-10-04T19:11:43.945Z,11.70
2018-10-04T19:14:11.231Z,11.80
2018-10-04T19:16:38.579Z,11.70
2018-10-04T19:19:05.950Z,11.80
2018-10-04T19:21:33.275Z,11.70
2018-10-04T19:24:00.602Z,11.70
2018-10-04T19:26:27.909Z,11.70
2018-10-04T19:28:55.502Z,11.70
2018-10-04T19:31:22.818Z,11.60
2018-10-04T19:33:50.101Z,11.60
2018-10-04T19:36:17.476Z,11.50
2018-10-04T19:38:44.774Z,11.50
2018-10-04T19:41:12.143Z,11.40
2018-10-04T19:43:39.428Z,11.40
2018-10-04T19:46:06.780Z,11.30
2018-10-04T19:48:34.129Z,11.20
2018-10-04T19:51:01.805Z,11.20
2018-10-04T19:53:29.176Z,11.10
2018-10-04T19:55:56.534Z,11.00
2018-10-04T19:58:23.831Z,11.00
2018-10-04T20:00:51.120Z,11.00
2018-10-04T20:03:18.547Z,11.00
2018-10-04T20:05:46.286Z,11.00
2018-10-04T20:08:13.595Z,11.00
2018-10-04T20:10:41.034Z,10.90
2018-10-04T20:13:08.800Z,10.90
2018-10-04T20:15:36.060Z,10.80
2018-10-04T20:18:03.399Z,10.70
2018-10-04T20:20:30.655Z,10.70
2018-10-04T20:22:57.913Z,10.70
2018-10-04T20:25:25.173Z,10.80
2018-10-04T20:27:52.493Z,10.70
2018-10-04T20:30:19.741Z,10.70
2018-10-04T20:32:47.000Z,10.60
2018-10-04T20:35:14.241Z,10.60
2018-10-04T20:37:41.513Z,10.50
2018-10-04T20:40:08.825Z,10.50
2018-10-04T20:42:36.093Z,10.40
2018-10-04T20:45:03.389Z,10.30
2018-10-04T20:47:30.681Z,10.30
2018-10-04T20:49:57.987Z,10.20
2018-10-04T20:52:25.266Z,10.20
2018-10-04T20:54:52.538Z,10.20
2018-10-04T20:57:19.797Z,10.20
2018-10-04T20:59:47.054Z,10.20
2018-10-04T21:02:14.314Z,10.00
2018-10-04T21:04:41.585Z,10.00
2018-10-04T21:07:08.856Z,10.00
2018-10-04T21:09:36.153Z,10.00
2018-10-04T21:12:03.474Z,9.90
2018-10-04T21:14:30.786Z,9.80
2018-10-04T21:16:58.132Z,9.80
2018-10-04T21:19:25.456Z,9.80
2018-10-04T21:21:52.737Z,9.60
2018-10-04T21:24:20.030Z,9.60
2018-10-04T21:26:47.320Z,9.60
2018-10-04T21:29:14.673Z,9.60
2018-10-04T21:31:41.990Z,9.50
2018-10-04T21:34:09.964Z,9.40
2018-10-04T21:36:37.390Z,9.40
2018-10-04T21:39:05.202Z,9.20
2018-10-04T21:41:32.561Z,9.20
2018-10-04T21:43:59.833Z,9.10
2018-10-04T21:46:27.335Z,9.00
2018-10-04T21:48:54.649Z,9.00
2018-10-04T21:51:21.997Z,8.90
2018-10-04T21:53:49.328Z,9.00
2018-10-04T21:56:16.582Z,9.00
2018-10-04T21:58:43.866Z,9.10
2018-10-04T22:01:11.212Z,9.10
2018-10-04T22:03:38.865Z,9.00
2018-10-04T22:06:06.181Z,8.90
2018-10-04T22:08:33.490Z,8.80
2018-10-04T22:11:00.769Z,8.80
2018-10-04T22:13:28.109Z,8.90
2018-10-04T22:15:55.388Z,8.90
2018-10-04T22:18:22.686Z,9.00
2018-10-04T22:20:50.009Z,9.00
2018-10-04T22:23:17.297Z,9.00
2018-10-04T22:25:44.587Z,9.00
2018-10-04T22:28:11.881Z,9.00
2018-10-04T22:30:39.174Z,8.90
2018-10-04T22:33:06.624Z,8.90
2018-10-04T22:35:33.925Z,8.90
2018-10-04T22:38:01.204Z,8.80
2018-10-04T22:40:28.537Z,8.60
2018-10-04T22:42:55.833Z,8.50
2018-10-04T22:45:23.149Z,8.40
2018-10-04T22:47:50.457Z,8.50
2018-10-04T22:50:17.747Z,8.50
2018-10-04T22:52:45.056Z,8.60
2018-10-04T22:55:12.338Z,8.50
2018-10-04T22:57:39.630Z,8.50
2018-10-04T23:00:07.272Z,8.50
2018-10-04T23:02:34.598Z,8.50
2018-10-04T23:05:01.953Z,8.40
2018-10-04T23:07:29.270Z,8.40
2018-10-04T23:09:56.598Z,8.40
2018-10-04T23:12:23.969Z,8.40
2018-10-04T23:14:51.336Z,8.50
2018-10-04T23:17:18.641Z,8.50
2018-10-04T23:19:45.929Z,8.50
2018-10-04T23:22:13.241Z,8.40
2018-10-04T23:24:40.533Z,8.50
2018-10-04T23:27:07.831Z,8.40
2018-10-04T23:29:35.150Z,8.50
2018-10-04T23:32:02.453Z,8.40
2018-10-04T23:34:29.770Z,8.40
2018-10-04T23:36:57.093Z,8.50
2018-10-04T23:39:24.380Z,8.40
2018-10-04T23:41:51.676Z,8.30
2018-10-04T23:44:18.997Z,8.30
2018-10-04T23:46:46.292Z,8.20
2018-10-04T23:49:13.609Z,7.90
2018-10-04T23:51:40.939Z,7.90
2018-10-04T23:54:08.224Z,8.00
2018-10-04T23:56:35.529Z,8.00
2018-10-04T23:59:02.870Z,8.10
